Weather Data

Pearl Creek Farm: 8878 N Farm Road 75, Walnut Grove MO 65770

<== Previous Day (Thursday 27 Apr 2017) | Next Day (Saturday 29 Apr 2017) ==>

Summary Precipitation Data For Friday 28 April 2017

ElementValueUnits
Precipitation0.25"
Notes(none)
SourcePearl Creek Farm

Summary Temperature Data For Friday 28 April 2017

ElementValueUnits
High Temperature64 oF
Low Temperature54 oF
Average Temperature60 oF
High Humidity100 %
Low Humidity84 %
Average Humidity91 %
SourceSpringfield-Branson National Airport (SGF)

Detail Temperature Data For Friday 28 April 2017

Date / TimeTemp (F)RH (%)Dew Pt (F)Report Date / TimeSource
2017-04-28 01:52:00 56 84 51.0 2017-12-29 17:00:26.17417 Springfield-Branson National Airport (SGF)
2017-04-28 02:52:00 56 90 53.0 2017-12-29 17:00:26.17417 Springfield-Branson National Airport (SGF)
2017-04-28 03:52:00 56 90 53.0 2017-12-29 17:00:26.17417 Springfield-Branson National Airport (SGF)
2017-04-28 04:52:00 54 97 53.0 2017-12-29 17:00:26.17417 Springfield-Branson National Airport (SGF)
2017-04-28 05:52:00 55 93 53.0 2017-12-29 17:00:26.17417 Springfield-Branson National Airport (SGF)
2017-04-28 06:52:00 55 96 54.0 2017-12-29 17:00:26.17417 Springfield-Branson National Airport (SGF)
2017-04-28 07:52:00 56 93 54.0 2017-12-29 17:00:26.17417 Springfield-Branson National Airport (SGF)
2017-04-28 08:52:00 58 90 55.0 2017-12-29 17:00:26.17417 Springfield-Branson National Airport (SGF)
2017-04-28 16:52:00 63 93 61.0 2017-12-29 17:00:26.17417 Springfield-Branson National Airport (SGF)
2017-04-28 21:52:00 62 100 62.0 2017-12-29 17:00:26.17417 Springfield-Branson National Airport (SGF)
2017-04-28 22:52:00 62 96 61.0 2017-12-29 17:00:26.17417 Springfield-Branson National Airport (SGF)
2017-04-28 23:52:00 62 96 61.0 2017-12-29 17:00:26.17417 Springfield-Branson National Airport (SGF)
2017-04-28 00:52:00 55 87 51.0 2017-12-29 17:00:26.17417 Springfield-Branson National Airport (SGF)
2017-04-28 09:52:00 59 87 55.0 2017-12-29 17:00:26.17417 Springfield-Branson National Airport (SGF)
2017-04-28 10:52:00 60 86 56.0 2017-12-29 17:00:26.17417 Springfield-Branson National Airport (SGF)
2017-04-28 11:52:00 61 90 58.0 2017-12-29 17:00:26.17417 Springfield-Branson National Airport (SGF)
2017-04-28 12:52:00 62 86 58.0 2017-12-29 17:00:26.17417 Springfield-Branson National Airport (SGF)
2017-04-28 13:52:00 62 90 59.0 2017-12-29 17:00:26.17417 Springfield-Branson National Airport (SGF)
2017-04-28 14:52:00 64 87 60.0 2017-12-29 17:00:26.17417 Springfield-Branson National Airport (SGF)
2017-04-28 15:52:00 64 90 61.0 2017-12-29 17:00:26.17417 Springfield-Branson National Airport (SGF)
2017-04-28 17:52:00 64 90 61.0 2017-12-29 17:00:26.17417 Springfield-Branson National Airport (SGF)
2017-04-28 18:52:00 64 93 62.0 2017-12-29 17:00:26.17417 Springfield-Branson National Airport (SGF)
2017-04-28 19:52:00 64 90 61.0 2017-12-29 17:00:26.17417 Springfield-Branson National Airport (SGF)
2017-04-28 20:52:00 63 93 61.0 2017-12-29 17:00:26.17417 Springfield-Branson National Airport (SGF)

A total of 24 rows are displayed.